sensor_id;sensor_type;location;lat;lon;timestamp;temperature;humidity
5775;DHT22;2913;51.120;6.772;2023-05-23T00:01:56;16.50;99.90
5775;DHT22;2913;51.120;6.772;2023-05-23T00:04:23;16.50;99.90
5775;DHT22;2913;51.120;6.772;2023-05-23T00:06:51;16.40;99.90
5775;DHT22;2913;51.120;6.772;2023-05-23T00:09:17;16.10;99.90
5775;DHT22;2913;51.120;6.772;2023-05-23T00:11:43;16.40;99.90
5775;DHT22;2913;51.120;6.772;2023-05-23T00:14:13;16.40;99.90
5775;DHT22;2913;51.120;6.772;2023-05-23T00:16:43;16.40;99.90
5775;DHT22;2913;51.120;6.772;2023-05-23T00:19:10;16.40;99.90
5775;DHT22;2913;51.120;6.772;2023-05-23T00:21:36;16.40;99.90
5775;DHT22;2913;51.120;6.772;2023-05-23T00:24:04;16.40;99.90
5775;DHT22;2913;51.120;6.772;2023-05-23T00:26:34;16.50;99.90
5775;DHT22;2913;51.120;6.772;2023-05-23T00:29:00;16.60;99.90
5775;DHT22;2913;51.120;6.772;2023-05-23T00:31:25;16.60;99.90
5775;DHT22;2913;51.120;6.772;2023-05-23T00:33:51;16.70;99.90
5775;DHT22;2913;51.120;6.772;2023-05-23T00:36:17;16.70;99.90
5775;DHT22;2913;51.120;6.772;2023-05-23T00:38:42;16.70;99.90
5775;DHT22;2913;51.120;6.772;2023-05-23T00:41:10;16.70;99.90
5775;DHT22;2913;51.120;6.772;2023-05-23T00:43:36;16.70;99.90
5775;DHT22;2913;51.120;6.772;2023-05-23T00:46:01;16.70;99.90
5775;DHT22;2913;51.120;6.772;2023-05-23T00:48:28;16.70;99.90
5775;DHT22;2913;51.120;6.772;2023-05-23T00:50:58;16.70;99.90
5775;DHT22;2913;51.120;6.772;2023-05-23T00:53:24;16.70;99.90
5775;DHT22;2913;51.120;6.772;2023-05-23T00:55:53;16.70;99.90
5775;DHT22;2913;51.120;6.772;2023-05-23T00:58:21;16.60;99.90
5775;DHT22;2913;51.120;6.772;2023-05-23T01:00:47;16.60;99.90
5775;DHT22;2913;51.120;6.772;2023-05-23T01:03:18;16.60;99.90
5775;DHT22;2913;51.120;6.772;2023-05-23T01:05:44;16.50;99.90
5775;DHT22;2913;51.120;6.772;2023-05-23T01:08:10;16.50;99.90
5775;DHT22;2913;51.120;6.772;2023-05-23T01:10:36;16.50;99.90
5775;DHT22;2913;51.120;6.772;2023-05-23T01:16:09;16.50;99.90
5775;DHT22;2913;51.120;6.772;2023-05-23T01:18:42;16.30;99.90
5775;DHT22;2913;51.120;6.772;2023-05-23T01:21:17;16.30;99.90
5775;DHT22;2913;51.120;6.772;2023-05-23T01:29:13;16.40;99.90
5775;DHT22;2913;51.120;6.772;2023-05-23T01:31:45;16.30;99.90
5775;DHT22;2913;51.120;6.772;2023-05-23T01:34:13;16.30;99.90
5775;DHT22;2913;51.120;6.772;2023-05-23T01:36:42;16.20;99.90
5775;DHT22;2913;51.120;6.772;2023-05-23T01:39:08;16.20;99.90
5775;DHT22;2913;51.120;6.772;2023-05-23T01:41:34;16.20;99.90
5775;DHT22;2913;51.120;6.772;2023-05-23T01:44:00;16.20;99.90
5775;DHT22;2913;51.120;6.772;2023-05-23T01:46:27;16.20;99.90
5775;DHT22;2913;51.120;6.772;2023-05-23T01:48:54;16.20;99.90
5775;DHT22;2913;51.120;6.772;2023-05-23T01:51:25;16.20;99.90
5775;DHT22;2913;51.120;6.772;2023-05-23T01:53:51;16.20;99.90
5775;DHT22;2913;51.120;6.772;2023-05-23T01:56:19;16.20;99.90
5775;DHT22;2913;51.120;6.772;2023-05-23T01:58:44;16.20;99.90
5775;DHT22;2913;51.120;6.772;2023-05-23T02:01:12;16.20;99.90
5775;DHT22;2913;51.120;6.772;2023-05-23T02:03:38;16.20;99.90
5775;DHT22;2913;51.120;6.772;2023-05-23T02:06:04;16.20;99.90
5775;DHT22;2913;51.120;6.772;2023-05-23T02:08:30;16.20;99.90
5775;DHT22;2913;51.120;6.772;2023-05-23T02:10:57;16.20;99.90
5775;DHT22;2913;51.120;6.772;2023-05-23T02:13:28;16.20;99.90
5775;DHT22;2913;51.120;6.772;2023-05-23T02:18:20;16.20;99.90
5775;DHT22;2913;51.120;6.772;2023-05-23T02:20:45;16.10;99.90
5775;DHT22;2913;51.120;6.772;2023-05-23T02:23:13;16.10;99.90
5775;DHT22;2913;51.120;6.772;2023-05-23T02:25:42;16.10;99.90
5775;DHT22;2913;51.120;6.772;2023-05-23T02:28:10;16.10;99.90
5775;DHT22;2913;51.120;6.772;2023-05-23T02:30:37;16.10;99.90
5775;DHT22;2913;51.120;6.772;2023-05-23T02:33:08;16.10;99.90
5775;DHT22;2913;51.120;6.772;2023-05-23T02:35:36;16.00;99.90
5775;DHT22;2913;51.120;6.772;2023-05-23T02:38:01;16.20;99.90
5775;DHT22;2913;51.120;6.772;2023-05-23T02:40:29;16.20;99.90
5775;DHT22;2913;51.120;6.772;2023-05-23T02:42:57;16.20;99.90
5775;DHT22;2913;51.120;6.772;2023-05-23T02:45:23;16.20;99.90
5775;DHT22;2913;51.120;6.772;2023-05-23T02:47:49;16.20;99.90
5775;DHT22;2913;51.120;6.772;2023-05-23T02:50:14;16.20;99.90
5775;DHT22;2913;51.120;6.772;2023-05-23T02:52:40;16.20;99.90
5775;DHT22;2913;51.120;6.772;2023-05-23T02:55:08;16.30;99.90
5775;DHT22;2913;51.120;6.772;2023-05-23T02:57:33;16.20;99.90
5775;DHT22;2913;51.120;6.772;2023-05-23T03:00:02;16.20;99.90
5775;DHT22;2913;51.120;6.772;2023-05-23T03:02:28;16.20;99.90
5775;DHT22;2913;51.120;6.772;2023-05-23T03:04:56;16.20;99.90
5775;DHT22;2913;51.120;6.772;2023-05-23T03:07:24;16.20;99.90
5775;DHT22;2913;51.120;6.772;2023-05-23T03:09:51;16.10;99.90
5775;DHT22;2913;51.120;6.772;2023-05-23T03:12:16;16.20;99.90
5775;DHT22;2913;51.120;6.772;2023-05-23T03:14:42;16.20;99.90
5775;DHT22;2913;51.120;6.772;2023-05-23T03:17:08;16.10;99.90
5775;DHT22;2913;51.120;6.772;2023-05-23T03:19:33;16.10;99.90
5775;DHT22;2913;51.120;6.772;2023-05-23T03:21:59;16.10;99.90
5775;DHT22;2913;51.120;6.772;2023-05-23T03:24:27;16.00;99.90
5775;DHT22;2913;51.120;6.772;2023-05-23T03:26:55;16.00;99.90
5775;DHT22;2913;51.120;6.772;2023-05-23T03:29:23;16.00;99.90
5775;DHT22;2913;51.120;6.772;2023-05-23T03:31:53;15.90;99.90
5775;DHT22;2913;51.120;6.772;2023-05-23T03:34:18;15.90;99.90
5775;DHT22;2913;51.120;6.772;2023-05-23T03:36:44;15.90;99.90
5775;DHT22;2913;51.120;6.772;2023-05-23T03:39:12;15.70;99.90
5775;DHT22;2913;51.120;6.772;2023-05-23T03:41:40;15.70;99.90
5775;DHT22;2913;51.120;6.772;2023-05-23T03:44:05;15.80;99.90
5775;DHT22;2913;51.120;6.772;2023-05-23T03:48:58;15.80;99.90
5775;DHT22;2913;51.120;6.772;2023-05-23T03:51:23;15.80;99.90
5775;DHT22;2913;51.120;6.772;2023-05-23T03:53:49;15.70;99.90
5775;DHT22;2913;51.120;6.772;2023-05-23T03:56:14;15.70;99.90
5775;DHT22;2913;51.120;6.772;2023-05-23T03:58:40;15.80;99.90
5775;DHT22;2913;51.120;6.772;2023-05-23T04:01:06;15.80;99.90
5775;DHT22;2913;51.120;6.772;2023-05-23T04:03:31;15.80;99.90
5775;DHT22;2913;51.120;6.772;2023-05-23T04:05:58;15.80;99.90
5775;DHT22;2913;51.120;6.772;2023-05-23T04:08:27;15.70;99.90
5775;DHT22;2913;51.120;6.772;2023-05-23T04:10:53;15.70;99.90
5775;DHT22;2913;51.120;6.772;2023-05-23T04:13:19;15.70;99.90
5775;DHT22;2913;51.120;6.772;2023-05-23T04:18:12;15.70;99.90
5775;DHT22;2913;51.120;6.772;2023-05-23T04:20:40;15.70;99.90
5775;DHT22;2913;51.120;6.772;2023-05-23T04:23:05;15.70;99.90
5775;DHT22;2913;51.120;6.772;2023-05-23T04:25:33;15.70;99.90
5775;DHT22;2913;51.120;6.772;2023-05-23T04:27:59;15.70;99.90
5775;DHT22;2913;51.120;6.772;2023-05-23T04:30:28;15.70;99.90
5775;DHT22;2913;51.120;6.772;2023-05-23T04:32:54;15.70;99.90
5775;DHT22;2913;51.120;6.772;2023-05-23T04:35:22;15.70;99.90
5775;DHT22;2913;51.120;6.772;2023-05-23T04:37:48;15.80;99.90
5775;DHT22;2913;51.120;6.772;2023-05-23T04:40:23;15.70;99.90
5775;DHT22;2913;51.120;6.772;2023-05-23T04:42:51;15.70;99.90
5775;DHT22;2913;51.120;6.772;2023-05-23T04:45:22;15.60;99.90
5775;DHT22;2913;51.120;6.772;2023-05-23T04:47:47;15.60;99.90
5775;DHT22;2913;51.120;6.772;2023-05-23T04:50:13;15.60;99.90
5775;DHT22;2913;51.120;6.772;2023-05-23T04:52:39;15.40;99.90
5775;DHT22;2913;51.120;6.772;2023-05-23T04:55:06;15.50;99.90
5775;DHT22;2913;51.120;6.772;2023-05-23T04:57:33;15.50;99.90
5775;DHT22;2913;51.120;6.772;2023-05-23T04:59:59;15.50;99.90
5775;DHT22;2913;51.120;6.772;2023-05-23T05:02:28;15.50;99.90
5775;DHT22;2913;51.120;6.772;2023-05-23T05:04:59;15.50;99.90
5775;DHT22;2913;51.120;6.772;2023-05-23T05:07:27;15.50;99.90
5775;DHT22;2913;51.120;6.772;2023-05-23T05:09:53;15.50;99.90
5775;DHT22;2913;51.120;6.772;2023-05-23T05:12:19;15.60;99.90
5775;DHT22;2913;51.120;6.772;2023-05-23T05:14:45;15.50;99.90
5775;DHT22;2913;51.120;6.772;2023-05-23T05:17:10;15.50;99.90
5775;DHT22;2913;51.120;6.772;2023-05-23T05:19:37;15.40;99.90
5775;DHT22;2913;51.120;6.772;2023-05-23T05:22:03;15.40;99.90
5775;DHT22;2913;51.120;6.772;2023-05-23T05:24:31;15.50;99.90
5775;DHT22;2913;51.120;6.772;2023-05-23T05:26:59;15.50;99.90
5775;DHT22;2913;51.120;6.772;2023-05-23T05:29:25;15.50;99.90
5775;DHT22;2913;51.120;6.772;2023-05-23T05:31:51;15.50;99.90
5775;DHT22;2913;51.120;6.772;2023-05-23T05:34:17;15.50;99.90
5775;DHT22;2913;51.120;6.772;2023-05-23T05:36:43;15.50;99.90
5775;DHT22;2913;51.120;6.772;2023-05-23T05:39:13;15.50;99.90
5775;DHT22;2913;51.120;6.772;2023-05-23T05:41:39;15.60;99.90
5775;DHT22;2913;51.120;6.772;2023-05-23T05:44:06;15.50;99.90
5775;DHT22;2913;51.120;6.772;2023-05-23T05:46:31;15.50;99.90
5775;DHT22;2913;51.120;6.772;2023-05-23T05:48:59;15.50;99.90
5775;DHT22;2913;51.120;6.772;2023-05-23T05:51:25;15.50;99.90
5775;DHT22;2913;51.120;6.772;2023-05-23T05:53:50;15.50;99.90
5775;DHT22;2913;51.120;6.772;2023-05-23T05:56:16;15.60;99.90
5775;DHT22;2913;51.120;6.772;2023-05-23T05:58:41;15.60;99.90
5775;DHT22;2913;51.120;6.772;2023-05-23T06:01:07;15.50;99.90
5775;DHT22;2913;51.120;6.772;2023-05-23T06:03:33;15.50;99.90
5775;DHT22;2913;51.120;6.772;2023-05-23T06:05:59;15.50;99.90
5775;DHT22;2913;51.120;6.772;2023-05-23T06:08:27;15.60;99.90
5775;DHT22;2913;51.120;6.772;2023-05-23T06:10:52;15.50;99.90
5775;DHT22;2913;51.120;6.772;2023-05-23T06:13:23;15.50;99.90
5775;DHT22;2913;51.120;6.772;2023-05-23T06:15:53;15.60;99.90
5775;DHT22;2913;51.120;6.772;2023-05-23T06:18:19;15.50;99.90
5775;DHT22;2913;51.120;6.772;2023-05-23T06:20:44;15.50;99.90
5775;DHT22;2913;51.120;6.772;2023-05-23T06:23:10;15.40;99.90
5775;DHT22;2913;51.120;6.772;2023-05-23T06:25:35;15.40;99.90
5775;DHT22;2913;51.120;6.772;2023-05-23T06:28:03;15.40;99.90
5775;DHT22;2913;51.120;6.772;2023-05-23T06:32:57;15.50;99.90
5775;DHT22;2913;51.120;6.772;2023-05-23T06:35:27;15.50;99.90
5775;DHT22;2913;51.120;6.772;2023-05-23T06:37:53;15.50;99.90
5775;DHT22;2913;51.120;6.772;2023-05-23T06:40:18;15.50;99.90
5775;DHT22;2913;51.120;6.772;2023-05-23T06:42:46;15.50;99.90
5775;DHT22;2913;51.120;6.772;2023-05-23T06:45:12;15.60;99.90
5775;DHT22;2913;51.120;6.772;2023-05-23T06:47:42;15.60;99.90
5775;DHT22;2913;51.120;6.772;2023-05-23T06:50:10;15.60;99.90
5775;DHT22;2913;51.120;6.772;2023-05-23T06:52:35;15.70;99.90
5775;DHT22;2913;51.120;6.772;2023-05-23T06:55:01;15.70;99.90
5775;DHT22;2913;51.120;6.772;2023-05-23T06:57:29;15.80;99.90
5775;DHT22;2913;51.120;6.772;2023-05-23T06:59:54;15.90;99.90
5775;DHT22;2913;51.120;6.772;2023-05-23T07:02:20;15.90;99.90
5775;DHT22;2913;51.120;6.772;2023-05-23T07:04:48;16.00;99.90
5775;DHT22;2913;51.120;6.772;2023-05-23T07:07:18;16.10;99.90
5775;DHT22;2913;51.120;6.772;2023-05-23T07:09:45;16.00;99.90
5775;DHT22;2913;51.120;6.772;2023-05-23T07:12:11;16.10;99.90
5775;DHT22;2913;51.120;6.772;2023-05-23T07:14:37;16.00;99.90
5775;DHT22;2913;51.120;6.772;2023-05-23T07:17:04;16.00;99.90
5775;DHT22;2913;51.120;6.772;2023-05-23T07:19:30;16.20;99.90
5775;DHT22;2913;51.120;6.772;2023-05-23T07:21:56;16.10;99.90
5775;DHT22;2913;51.120;6.772;2023-05-23T07:24:21;16.10;99.90
5775;DHT22;2913;51.120;6.772;2023-05-23T07:26:47;16.10;99.90
5775;DHT22;2913;51.120;6.772;2023-05-23T07:29:13;16.10;99.90
5775;DHT22;2913;51.120;6.772;2023-05-23T07:31:38;16.10;99.90
5775;DHT22;2913;51.120;6.772;2023-05-23T07:34:04;16.00;99.90
5775;DHT22;2913;51.120;6.772;2023-05-23T07:36:32;16.10;99.90
5775;DHT22;2913;51.120;6.772;2023-05-23T07:39:02;16.10;99.90
5775;DHT22;2913;51.120;6.772;2023-05-23T07:41:28;16.10;99.90
5775;DHT22;2913;51.120;6.772;2023-05-23T07:43:58;16.10;99.90
5775;DHT22;2913;51.120;6.772;2023-05-23T07:46:24;16.10;99.90
5775;DHT22;2913;51.120;6.772;2023-05-23T07:48:49;16.10;99.90
5775;DHT22;2913;51.120;6.772;2023-05-23T07:51:17;16.10;99.90
5775;DHT22;2913;51.120;6.772;2023-05-23T07:53:46;16.10;99.90
5775;DHT22;2913;51.120;6.772;2023-05-23T07:56:16;16.10;99.90
5775;DHT22;2913;51.120;6.772;2023-05-23T07:58:41;16.00;99.90
5775;DHT22;2913;51.120;6.772;2023-05-23T08:01:07;15.90;99.90
5775;DHT22;2913;51.120;6.772;2023-05-23T08:03:33;16.00;99.90
5775;DHT22;2913;51.120;6.772;2023-05-23T08:05:59;16.00;99.90
5775;DHT22;2913;51.120;6.772;2023-05-23T08:08:24;16.00;99.90
5775;DHT22;2913;51.120;6.772;2023-05-23T08:10:50;15.80;99.90
5775;DHT22;2913;51.120;6.772;2023-05-23T08:13:17;15.70;99.90
5775;DHT22;2913;51.120;6.772;2023-05-23T08:15:45;15.70;99.90
5775;DHT22;2913;51.120;6.772;2023-05-23T08:18:13;15.70;99.90
5775;DHT22;2913;51.120;6.772;2023-05-23T08:20:42;15.70;99.90
5775;DHT22;2913;51.120;6.772;2023-05-23T08:23:10;15.70;99.90
5775;DHT22;2913;51.120;6.772;2023-05-23T08:25:37;15.70;99.90
5775;DHT22;2913;51.120;6.772;2023-05-23T08:28:03;15.70;99.90
5775;DHT22;2913;51.120;6.772;2023-05-23T08:30:31;15.80;99.90
5775;DHT22;2913;51.120;6.772;2023-05-23T08:33:00;15.80;99.90
5775;DHT22;2913;51.120;6.772;2023-05-23T08:35:29;15.80;99.90
5775;DHT22;2913;51.120;6.772;2023-05-23T08:38:04;15.80;99.90
5775;DHT22;2913;51.120;6.772;2023-05-23T08:40:31;15.80;99.90
5775;DHT22;2913;51.120;6.772;2023-05-23T08:42:58;15.60;99.90
5775;DHT22;2913;51.120;6.772;2023-05-23T08:45:27;15.60;99.90
5775;DHT22;2913;51.120;6.772;2023-05-23T08:47:59;15.60;99.90
5775;DHT22;2913;51.120;6.772;2023-05-23T08:50:31;15.40;99.90
5775;DHT22;2913;51.120;6.772;2023-05-23T08:53:00;15.40;99.90
5775;DHT22;2913;51.120;6.772;2023-05-23T08:55:29;15.30;99.90
5775;DHT22;2913;51.120;6.772;2023-05-23T08:57:58;15.20;99.90
5775;DHT22;2913;51.120;6.772;2023-05-23T09:00:25;15.20;99.90
5775;DHT22;2913;51.120;6.772;2023-05-23T09:02:52;15.30;99.90
5775;DHT22;2913;51.120;6.772;2023-05-23T09:05:19;15.20;99.90
5775;DHT22;2913;51.120;6.772;2023-05-23T09:07:48;15.20;99.90
5775;DHT22;2913;51.120;6.772;2023-05-23T09:10:16;15.30;99.90
5775;DHT22;2913;51.120;6.772;2023-05-23T09:12:44;15.10;99.90
5775;DHT22;2913;51.120;6.772;2023-05-23T09:15:10;15.20;99.90
5775;DHT22;2913;51.120;6.772;2023-05-23T09:17:39;15.20;99.90
5775;DHT22;2913;51.120;6.772;2023-05-23T09:20:14;15.40;99.90
5775;DHT22;2913;51.120;6.772;2023-05-23T09:22:44;15.60;99.90
5775;DHT22;2913;51.120;6.772;2023-05-23T09:25:10;15.80;99.90
5775;DHT22;2913;51.120;6.772;2023-05-23T09:27:36;15.80;99.90
5775;DHT22;2913;51.120;6.772;2023-05-23T09:30:08;15.70;99.90
5775;DHT22;2913;51.120;6.772;2023-05-23T09:32:35;15.70;99.90
5775;DHT22;2913;51.120;6.772;2023-05-23T09:35:04;15.90;99.90
5775;DHT22;2913;51.120;6.772;2023-05-23T09:40:05;15.80;99.90
5775;DHT22;2913;51.120;6.772;2023-05-23T09:42:32;15.70;99.90
5775;DHT22;2913;51.120;6.772;2023-05-23T09:45:01;15.60;99.90
5775;DHT22;2913;51.120;6.772;2023-05-23T09:47:29;15.60;99.90
5775;DHT22;2913;51.120;6.772;2023-05-23T09:49:55;15.50;99.90
5775;DHT22;2913;51.120;6.772;2023-05-23T09:52:21;15.50;99.90
5775;DHT22;2913;51.120;6.772;2023-05-23T09:54:49;15.50;99.90
5775;DHT22;2913;51.120;6.772;2023-05-23T09:57:15;15.30;99.90
5775;DHT22;2913;51.120;6.772;2023-05-23T09:59:53;15.30;99.90
5775;DHT22;2913;51.120;6.772;2023-05-23T10:02:50;15.10;99.90
5775;DHT22;2913;51.120;6.772;2023-05-23T10:05:56;15.00;99.90
5775;DHT22;2913;51.120;6.772;2023-05-23T10:08:33;15.00;99.90
5775;DHT22;2913;51.120;6.772;2023-05-23T10:13:48;14.90;99.90
5775;DHT22;2913;51.120;6.772;2023-05-23T10:16:18;15.00;99.90
5775;DHT22;2913;51.120;6.772;2023-05-23T10:18:44;15.10;99.90
5775;DHT22;2913;51.120;6.772;2023-05-23T10:21:18;14.90;99.90
5775;DHT22;2913;51.120;6.772;2023-05-23T10:23:49;14.90;99.90
5775;DHT22;2913;51.120;6.772;2023-05-23T10:26:17;14.90;99.90
5775;DHT22;2913;51.120;6.772;2023-05-23T10:28:45;14.90;99.90
5775;DHT22;2913;51.120;6.772;2023-05-23T10:33:45;14.90;99.90
5775;DHT22;2913;51.120;6.772;2023-05-23T10:36:21;14.90;99.90
5775;DHT22;2913;51.120;6.772;2023-05-23T10:39:01;14.80;99.90
5775;DHT22;2913;51.120;6.772;2023-05-23T10:41:35;14.80;99.90
5775;DHT22;2913;51.120;6.772;2023-05-23T10:44:37;14.70;99.90
5775;DHT22;2913;51.120;6.772;2023-05-23T10:47:04;14.90;99.90
5775;DHT22;2913;51.120;6.772;2023-05-23T10:49:51;14.80;99.90
5775;DHT22;2913;51.120;6.772;2023-05-23T10:52:23;15.10;99.90
5775;DHT22;2913;51.120;6.772;2023-05-23T10:54:57;15.30;99.90
5775;DHT22;2913;51.120;6.772;2023-05-23T10:57:25;15.60;99.90
5775;DHT22;2913;51.120;6.772;2023-05-23T10:59:53;15.80;99.90
5775;DHT22;2913;51.120;6.772;2023-05-23T11:02:27;15.70;99.90
5775;DHT22;2913;51.120;6.772;2023-05-23T11:08:08;16.00;99.90
5775;DHT22;2913;51.120;6.772;2023-05-23T11:10:53;16.10;99.90
5775;DHT22;2913;51.120;6.772;2023-05-23T11:13:22;16.10;99.90
5775;DHT22;2913;51.120;6.772;2023-05-23T11:15:48;16.70;99.90
5775;DHT22;2913;51.120;6.772;2023-05-23T11:18:25;16.80;99.90
5775;DHT22;2913;51.120;6.772;2023-05-23T11:20:52;16.90;99.90
5775;DHT22;2913;51.120;6.772;2023-05-23T11:23:18;16.50;99.90
5775;DHT22;2913;51.120;6.772;2023-05-23T11:25:50;16.40;99.90
5775;DHT22;2913;51.120;6.772;2023-05-23T11:28:19;16.40;99.90
5775;DHT22;2913;51.120;6.772;2023-05-23T11:30:50;16.20;99.90
5775;DHT22;2913;51.120;6.772;2023-05-23T11:33:17;16.40;99.90
5775;DHT22;2913;51.120;6.772;2023-05-23T11:35:47;16.40;99.90
5775;DHT22;2913;51.120;6.772;2023-05-23T11:38:14;16.80;99.90
5775;DHT22;2913;51.120;6.772;2023-05-23T11:40:43;16.80;99.90
5775;DHT22;2913;51.120;6.772;2023-05-23T11:43:10;16.90;99.90
5775;DHT22;2913;51.120;6.772;2023-05-23T11:45:37;16.80;99.90
5775;DHT22;2913;51.120;6.772;2023-05-23T11:48:09;16.80;99.90
5775;DHT22;2913;51.120;6.772;2023-05-23T11:53:12;16.70;99.90
5775;DHT22;2913;51.120;6.772;2023-05-23T11:55:56;16.50;99.90
5775;DHT22;2913;51.120;6.772;2023-05-23T11:58:33;16.60;99.90
5775;DHT22;2913;51.120;6.772;2023-05-23T12:01:03;16.50;99.90
5775;DHT22;2913;51.120;6.772;2023-05-23T12:03:30;16.70;99.90
5775;DHT22;2913;51.120;6.772;2023-05-23T12:05:57;16.70;99.90
5775;DHT22;2913;51.120;6.772;2023-05-23T12:08:23;17.00;99.90
5775;DHT22;2913;51.120;6.772;2023-05-23T12:10:56;16.90;99.90
5775;DHT22;2913;51.120;6.772;2023-05-23T12:13:23;16.70;99.90
5775;DHT22;2913;51.120;6.772;2023-05-23T12:15:53;16.30;99.90
5775;DHT22;2913;51.120;6.772;2023-05-23T12:18:23;16.40;99.90
5775;DHT22;2913;51.120;6.772;2023-05-23T12:20:49;16.30;99.90
5775;DHT22;2913;51.120;6.772;2023-05-23T12:23:22;16.30;99.90
5775;DHT22;2913;51.120;6.772;2023-05-23T12:25:52;16.20;99.90
5775;DHT22;2913;51.120;6.772;2023-05-23T12:28:33;16.50;99.90
5775;DHT22;2913;51.120;6.772;2023-05-23T12:33:38;16.70;99.90
5775;DHT22;2913;51.120;6.772;2023-05-23T12:36:05;16.90;99.90
5775;DHT22;2913;51.120;6.772;2023-05-23T12:38:36;16.90;99.90
5775;DHT22;2913;51.120;6.772;2023-05-23T12:41:18;17.10;99.90
5775;DHT22;2913;51.120;6.772;2023-05-23T12:43:52;17.10;99.90
5775;DHT22;2913;51.120;6.772;2023-05-23T12:46:24;17.20;99.90
5775;DHT22;2913;51.120;6.772;2023-05-23T12:48:53;17.30;99.90
5775;DHT22;2913;51.120;6.772;2023-05-23T12:53:47;17.40;99.90
5775;DHT22;2913;51.120;6.772;2023-05-23T12:56:13;17.20;99.90
5775;DHT22;2913;51.120;6.772;2023-05-23T12:58:40;17.40;99.90
5775;DHT22;2913;51.120;6.772;2023-05-23T13:01:06;17.20;99.90
5775;DHT22;2913;51.120;6.772;2023-05-23T13:03:34;17.20;99.90
5775;DHT22;2913;51.120;6.772;2023-05-23T13:05:59;17.20;99.90
5775;DHT22;2913;51.120;6.772;2023-05-23T13:08:30;17.40;99.90
5775;DHT22;2913;51.120;6.772;2023-05-23T13:10:56;17.80;99.90
5775;DHT22;2913;51.120;6.772;2023-05-23T13:13:21;17.70;99.90
5775;DHT22;2913;51.120;6.772;2023-05-23T13:15:50;17.80;99.90
5775;DHT22;2913;51.120;6.772;2023-05-23T13:18:15;17.80;99.90
5775;DHT22;2913;51.120;6.772;2023-05-23T13:20:43;17.80;99.90
5775;DHT22;2913;51.120;6.772;2023-05-23T13:23:13;17.50;99.90
5775;DHT22;2913;51.120;6.772;2023-05-23T13:25:42;17.50;99.90
5775;DHT22;2913;51.120;6.772;2023-05-23T13:28:07;17.10;99.90
5775;DHT22;2913;51.120;6.772;2023-05-23T13:30:33;17.10;99.90
5775;DHT22;2913;51.120;6.772;2023-05-23T13:33:01;17.40;99.90
5775;DHT22;2913;51.120;6.772;2023-05-23T13:35:27;17.30;99.90
5775;DHT22;2913;51.120;6.772;2023-05-23T13:37:55;17.80;99.90
5775;DHT22;2913;51.120;6.772;2023-05-23T13:40:21;17.80;99.90
5775;DHT22;2913;51.120;6.772;2023-05-23T13:42:52;18.40;99.90
5775;DHT22;2913;51.120;6.772;2023-05-23T13:45:18;18.20;97.90
5775;DHT22;2913;51.120;6.772;2023-05-23T13:47:44;18.00;97.00
5775;DHT22;2913;51.120;6.772;2023-05-23T13:50:11;17.70;97.40
5775;DHT22;2913;51.120;6.772;2023-05-23T13:52:41;17.80;98.60
5775;DHT22;2913;51.120;6.772;2023-05-23T13:55:09;17.90;99.50
5775;DHT22;2913;51.120;6.772;2023-05-23T13:57:35;18.10;99.10
5775;DHT22;2913;51.120;6.772;2023-05-23T14:00:00;18.30;98.70
5775;DHT22;2913;51.120;6.772;2023-05-23T14:02:28;18.10;97.30
5775;DHT22;2913;51.120;6.772;2023-05-23T14:04:56;18.20;96.90
5775;DHT22;2913;51.120;6.772;2023-05-23T14:07:22;18.10;97.00
5775;DHT22;2913;51.120;6.772;2023-05-23T14:09:47;17.90;96.80
5775;DHT22;2913;51.120;6.772;2023-05-23T14:12:15;17.80;98.40
5775;DHT22;2913;51.120;6.772;2023-05-23T14:14:41;17.40;97.80
5775;DHT22;2913;51.120;6.772;2023-05-23T14:17:06;17.40;99.30
5775;DHT22;2913;51.120;6.772;2023-05-23T14:19:32;17.40;99.50
5775;DHT22;2913;51.120;6.772;2023-05-23T14:22:00;17.60;99.90
5775;DHT22;2913;51.120;6.772;2023-05-23T14:24:26;17.50;99.90
5775;DHT22;2913;51.120;6.772;2023-05-23T14:26:51;17.90;99.40
5775;DHT22;2913;51.120;6.772;2023-05-23T14:29:17;18.20;98.00
5775;DHT22;2913;51.120;6.772;2023-05-23T14:31:43;18.00;97.60
5775;DHT22;2913;51.120;6.772;2023-05-23T14:34:08;18.20;98.60
5775;DHT22;2913;51.120;6.772;2023-05-23T14:36:34;17.50;98.10
5775;DHT22;2913;51.120;6.772;2023-05-23T14:41:28;17.60;99.70
5775;DHT22;2913;51.120;6.772;2023-05-23T14:43:58;17.70;99.40
5775;DHT22;2913;51.120;6.772;2023-05-23T14:46:23;17.70;99.70
5775;DHT22;2913;51.120;6.772;2023-05-23T14:48:49;17.60;99.90
5775;DHT22;2913;51.120;6.772;2023-05-23T14:51:17;17.80;99.90
5775;DHT22;2913;51.120;6.772;2023-05-23T14:53:47;17.40;99.10
5775;DHT22;2913;51.120;6.772;2023-05-23T14:58:44;17.60;98.80
5775;DHT22;2913;51.120;6.772;2023-05-23T15:01:11;17.90;99.20
5775;DHT22;2913;51.120;6.772;2023-05-23T15:03:37;17.90;98.40
5775;DHT22;2913;51.120;6.772;2023-05-23T15:06:06;18.20;97.00
5775;DHT22;2913;51.120;6.772;2023-05-23T15:08:34;18.40;97.70
5775;DHT22;2913;51.120;6.772;2023-05-23T15:11:02;18.30;94.70
5775;DHT22;2913;51.120;6.772;2023-05-23T15:13:30;18.40;94.80
5775;DHT22;2913;51.120;6.772;2023-05-23T15:15:58;18.10;96.20
5775;DHT22;2913;51.120;6.772;2023-05-23T15:18:28;18.20;95.20
5775;DHT22;2913;51.120;6.772;2023-05-23T15:20:54;18.20;95.60
5775;DHT22;2913;51.120;6.772;2023-05-23T15:23:19;18.10;91.70
5775;DHT22;2913;51.120;6.772;2023-05-23T15:25:45;18.20;91.90
5775;DHT22;2913;51.120;6.772;2023-05-23T15:28:11;18.30;89.20
5775;DHT22;2913;51.120;6.772;2023-05-23T15:30:36;18.30;89.70
5775;DHT22;2913;51.120;6.772;2023-05-23T15:33:02;18.30;87.20
5775;DHT22;2913;51.120;6.772;2023-05-23T15:35:31;18.40;88.70
5775;DHT22;2913;51.120;6.772;2023-05-23T15:37:56;18.20;90.00
5775;DHT22;2913;51.120;6.772;2023-05-23T15:40:22;18.10;90.60
5775;DHT22;2913;51.120;6.772;2023-05-23T15:42:48;18.00;90.50
5775;DHT22;2913;51.120;6.772;2023-05-23T15:45:16;17.60;90.90
5775;DHT22;2913;51.120;6.772;2023-05-23T15:47:41;17.90;90.20
5775;DHT22;2913;51.120;6.772;2023-05-23T15:50:07;18.00;90.50
5775;DHT22;2913;51.120;6.772;2023-05-23T15:52:35;18.10;90.60
5775;DHT22;2913;51.120;6.772;2023-05-23T15:55:01;18.10;89.70
5775;DHT22;2913;51.120;6.772;2023-05-23T15:57:30;18.40;90.50
5775;DHT22;2913;51.120;6.772;2023-05-23T15:59:56;18.20;90.30
5775;DHT22;2913;51.120;6.772;2023-05-23T16:02:22;18.50;90.70
5775;DHT22;2913;51.120;6.772;2023-05-23T16:04:49;18.50;88.10
5775;DHT22;2913;51.120;6.772;2023-05-23T16:07:15;18.50;89.40
5775;DHT22;2913;51.120;6.772;2023-05-23T16:09:41;18.50;90.30
5775;DHT22;2913;51.120;6.772;2023-05-23T16:12:07;18.70;89.40
5775;DHT22;2913;51.120;6.772;2023-05-23T16:14:32;18.60;86.60
5775;DHT22;2913;51.120;6.772;2023-05-23T16:17:03;18.70;87.50
5775;DHT22;2913;51.120;6.772;2023-05-23T16:19:31;18.60;86.70
5775;DHT22;2913;51.120;6.772;2023-05-23T16:21:56;18.50;88.50
5775;DHT22;2913;51.120;6.772;2023-05-23T16:24:22;18.00;87.90
5775;DHT22;2913;51.120;6.772;2023-05-23T16:26:52;18.00;88.60
5775;DHT22;2913;51.120;6.772;2023-05-23T16:29:21;17.80;89.90
5775;DHT22;2913;51.120;6.772;2023-05-23T16:31:46;17.60;90.40
5775;DHT22;2913;51.120;6.772;2023-05-23T16:34:12;17.70;90.70
5775;DHT22;2913;51.120;6.772;2023-05-23T16:36:42;17.80;93.10
5775;DHT22;2913;51.120;6.772;2023-05-23T16:39:08;17.90;92.00
5775;DHT22;2913;51.120;6.772;2023-05-23T16:41:34;17.80;91.40
5775;DHT22;2913;51.120;6.772;2023-05-23T16:44:07;17.70;90.90
5775;DHT22;2913;51.120;6.772;2023-05-23T16:46:32;17.50;90.60
5775;DHT22;2913;51.120;6.772;2023-05-23T16:48:58;17.30;91.20